createdAt,value
2024-04-23T00:01:58.189Z,96191.88
2024-04-23T00:04:28.655Z,96190.47
2024-04-23T00:06:59.492Z,96189.53
2024-04-23T00:09:29.949Z,96194.34
2024-04-23T00:11:57.331Z,96192.19
2024-04-23T00:14:27.480Z,96193.19
2024-04-23T00:16:58.869Z,96194.00
2024-04-23T00:19:29.004Z,96191.09
2024-04-23T00:21:59.181Z,96188.22
2024-04-23T00:24:29.160Z,96190.91
2024-04-23T00:26:56.634Z,96181.41
2024-04-23T00:29:26.772Z,96181.97
2024-04-23T00:31:54.473Z,96172.47
2024-04-23T00:34:24.606Z,96173.00
2024-04-23T00:36:52.736Z,96176.66
2024-04-23T00:39:25.670Z,96170.47
2024-04-23T00:41:53.009Z,96178.91
2024-04-23T00:44:23.030Z,96175.38
2024-04-23T00:46:50.451Z,96175.09
2024-04-23T00:49:20.533Z,96173.94
2024-04-23T00:51:50.023Z,96168.59
2024-04-23T00:54:20.176Z,96168.78
2024-04-23T00:56:50.962Z,96167.50
2024-04-23T00:59:21.097Z,96162.72
2024-04-23T01:01:49.198Z,96163.53
2024-04-23T01:04:19.280Z,96159.13
2024-04-23T01:06:51.146Z,96158.47
2024-04-23T01:09:21.446Z,96171.09
2024-04-23T01:11:51.672Z,96160.19
2024-04-23T01:14:21.667Z,96166.13
2024-04-23T01:16:49.545Z,96157.19
2024-04-23T01:19:21.479Z,96161.13
2024-04-23T01:21:52.103Z,96153.75
2024-04-23T01:24:24.778Z,96160.50
2024-04-23T01:26:54.767Z,96162.66
2024-04-23T01:29:24.874Z,96157.59
2024-04-23T01:31:52.316Z,96148.47
2024-04-23T01:34:22.316Z,96153.09
2024-04-23T01:36:49.647Z,96152.44
2024-04-23T01:39:19.738Z,96159.50
2024-04-23T01:41:47.066Z,96153.13
2024-04-23T01:44:19.678Z,96147.00
2024-04-23T01:46:47.645Z,96141.50
2024-04-23T01:49:17.757Z,96145.72
2024-04-23T01:51:45.206Z,96147.34
2024-04-23T01:54:15.237Z,96148.78
2024-04-23T01:56:42.566Z,96146.34
2024-04-23T01:59:12.517Z,96142.09
2024-04-23T02:01:44.581Z,96139.38
2024-04-23T02:04:14.593Z,96152.81
2024-04-23T02:06:41.982Z,96146.16
2024-04-23T02:09:12.773Z,96133.06
2024-04-23T02:11:41.833Z,96140.44
2024-04-23T02:14:11.866Z,96130.97
2024-04-23T02:16:39.624Z,96134.56
2024-04-23T02:19:12.214Z,96119.03
2024-04-23T02:21:39.540Z,96122.84
2024-04-23T02:24:09.622Z,96124.81
2024-04-23T02:26:37.007Z,96125.31
2024-04-23T02:29:07.319Z,96122.72
2024-04-23T02:31:34.684Z,96127.78
2024-04-23T02:34:04.716Z,96115.06
2024-04-23T02:36:39.144Z,96118.66
2024-04-23T02:39:06.582Z,96117.28
2024-04-23T02:41:38.143Z,96123.47
2024-04-23T02:44:05.636Z,96112.03
2024-04-23T02:46:35.672Z,96121.50
2024-04-23T02:49:03.048Z,96117.09
2024-04-23T02:51:33.033Z,96110.91
2024-04-23T02:54:03.162Z,96116.16
2024-04-23T02:56:33.522Z,96112.09
2024-04-23T02:59:00.877Z,96115.34
2024-04-23T03:01:30.870Z,96118.31
2024-04-23T03:03:58.213Z,96110.00
2024-04-23T03:06:28.163Z,96110.00
2024-04-23T03:08:56.551Z,96104.94
2024-04-23T03:11:29.507Z,96097.25
2024-04-23T03:13:56.924Z,96098.28
2024-04-23T03:16:26.956Z,96092.41
2024-04-23T03:18:54.276Z,96086.53
2024-04-23T03:21:24.273Z,96089.97
2024-04-23T03:23:52.107Z,96089.97
2024-04-23T03:26:22.072Z,96085.72
2024-04-23T03:28:52.080Z,96090.13
2024-04-23T03:31:22.127Z,96085.88
2024-04-23T03:33:49.793Z,96083.91
2024-04-23T03:36:19.765Z,96086.69
2024-04-23T03:38:51.169Z,96081.81
2024-04-23T03:41:21.121Z,96080.22
2024-04-23T03:43:51.076Z,96089.03
2024-04-23T03:46:23.735Z,96078.94
2024-04-23T03:48:51.213Z,96085.31
2024-04-23T03:51:21.440Z,96078.00
2024-04-23T03:53:48.817Z,96069.84
2024-04-23T03:56:18.995Z,96074.25
2024-04-23T03:58:46.390Z,96076.72
2024-04-23T04:01:16.484Z,96076.72
2024-04-23T04:04:05.083Z,96073.09
2024-04-23T04:06:35.062Z,96067.72
2024-04-23T04:09:05.060Z,96065.91
2024-04-23T04:11:36.987Z,96066.72
2024-04-23T04:14:07.062Z,96070.00
2024-04-23T04:16:35.885Z,96068.97
2024-04-23T04:19:08.884Z,96068.63
2024-04-23T04:21:36.175Z,96061.44
2024-04-23T04:24:06.498Z,96067.31
2024-04-23T04:26:33.822Z,96069.13
2024-04-23T04:29:03.943Z,96078.59
2024-04-23T04:31:31.384Z,96076.91
2024-04-23T04:34:01.730Z,96074.13
2024-04-23T04:36:31.691Z,96070.16
2024-04-23T04:39:01.658Z,96077.47
2024-04-23T04:41:30.283Z,96067.13
2024-04-23T04:44:00.471Z,96073.09
2024-04-23T04:46:28.385Z,96072.75
2024-04-23T04:48:58.389Z,96062.31
2024-04-23T04:51:25.724Z,96070.41
2024-04-23T04:53:58.338Z,96071.34
2024-04-23T04:56:28.380Z,96071.09
2024-04-23T04:58:58.447Z,96070.47
2024-04-23T05:01:26.310Z,96079.88
2024-04-23T05:03:58.489Z,96075.28
2024-04-23T05:06:26.296Z,96075.91
2024-04-23T05:08:58.975Z,96073.38
2024-04-23T05:11:26.288Z,96077.03
2024-04-23T05:13:56.628Z,96067.63
2024-04-23T05:16:23.944Z,96063.66
2024-04-23T05:18:53.944Z,96057.06
2024-04-23T05:21:21.269Z,96058.97
2024-04-23T05:23:51.288Z,96064.47
2024-04-23T05:26:21.266Z,96060.94
2024-04-23T05:28:51.671Z,96067.63
2024-04-23T05:31:51.975Z,96064.63
2024-04-23T05:34:21.980Z,96062.47
2024-04-23T05:36:51.929Z,96063.19
2024-04-23T05:39:21.935Z,96064.06
2024-04-23T05:41:54.553Z,96059.88
2024-04-23T05:44:25.355Z,96058.88
2024-04-23T05:46:55.355Z,96058.00
2024-04-23T05:50:02.717Z,96059.81
2024-04-23T05:53:28.909Z,96053.56
2024-04-23T05:56:15.866Z,96050.13
2024-04-23T05:58:48.615Z,96047.19
2024-04-23T06:01:20.221Z,96049.34
2024-04-23T06:03:50.438Z,96041.59
2024-04-23T06:06:17.856Z,96042.69
2024-04-23T06:08:47.834Z,96039.94
2024-04-23T06:11:15.355Z,96040.22
2024-04-23T06:14:09.246Z,96041.47
2024-04-23T06:16:36.710Z,96042.50
2024-04-23T06:19:06.774Z,96043.59
2024-04-23T06:21:34.160Z,96046.03
2024-04-23T06:24:04.415Z,96046.47
2024-04-23T06:26:31.701Z,96045.22
2024-04-23T06:29:04.335Z,96051.72
2024-04-23T06:31:34.146Z,96044.56
2024-04-23T06:34:05.212Z,96040.84
2024-04-23T06:36:33.040Z,96043.03
2024-04-23T06:39:03.062Z,96034.66
2024-04-23T06:41:30.403Z,96034.47
2024-04-23T06:44:03.184Z,96034.81
2024-04-23T06:46:30.712Z,96031.72
2024-04-23T06:49:00.704Z,96035.47
2024-04-23T06:51:28.056Z,96027.28
2024-04-23T06:53:59.082Z,96019.66
2024-04-23T06:56:26.365Z,96025.41
2024-04-23T06:58:56.358Z,96030.13
2024-04-23T07:01:26.386Z,96020.19
2024-04-23T07:03:56.768Z,96014.66
2024-04-23T07:06:26.782Z,96014.59
2024-04-23T07:08:56.358Z,96005.97
2024-04-23T07:11:26.628Z,96000.28
2024-04-23T07:13:56.687Z,96004.13
2024-04-23T07:16:26.643Z,95999.66
2024-04-23T07:19:01.961Z,95997.59
2024-04-23T07:21:29.972Z,95994.53
2024-04-23T07:24:00.009Z,96005.25
2024-04-23T07:26:27.338Z,95993.09
2024-04-23T07:28:57.388Z,96000.66
2024-04-23T07:31:30.476Z,95997.66
2024-04-23T07:33:57.858Z,96002.84
2024-04-23T07:36:29.986Z,96002.28
2024-04-23T07:38:57.493Z,96003.81
2024-04-23T07:41:27.440Z,96002.53
2024-04-23T07:43:55.109Z,95991.59
2024-04-23T07:46:25.119Z,95995.50
2024-04-23T07:48:56.854Z,95992.53
2024-04-23T07:51:29.133Z,95989.19
2024-04-23T07:53:56.609Z,95984.69
2024-04-23T07:56:26.613Z,95987.13
2024-04-23T07:58:54.028Z,95986.91
2024-04-23T08:01:24.044Z,95986.41
2024-04-23T08:03:51.419Z,95983.16
2024-04-23T08:06:24.135Z,95978.06
2024-04-23T08:08:51.523Z,95985.00
2024-04-23T08:11:21.831Z,95983.75
2024-04-23T08:13:49.308Z,95982.50
2024-04-23T08:16:19.348Z,95979.91
2024-04-23T08:18:46.825Z,95983.72
2024-04-23T08:21:16.793Z,95979.88
2024-04-23T08:23:47.165Z,95971.72
2024-04-23T08:26:17.458Z,95973.41
2024-04-23T08:28:45.828Z,95974.22
2024-04-23T08:31:15.940Z,95969.88
2024-04-23T08:33:43.351Z,95961.41
2024-04-23T08:36:13.423Z,95964.69
2024-04-23T08:38:41.087Z,95965.22
2024-04-23T08:41:18.386Z,95953.78
2024-04-23T08:43:50.383Z,95964.47
2024-04-23T08:46:20.400Z,95965.16
2024-04-23T08:48:47.773Z,95962.34
2024-04-23T08:51:18.088Z,95956.72
2024-04-23T08:53:45.452Z,95958.50
2024-04-23T08:56:23.952Z,95959.38
2024-04-23T08:58:51.328Z,95952.03
2024-04-23T09:01:24.219Z,95949.34
2024-04-23T09:03:52.363Z,95943.34
2024-04-23T09:06:22.696Z,95949.16
2024-04-23T09:08:50.137Z,95945.78
2024-04-23T09:11:22.861Z,95943.25
2024-04-23T09:13:53.062Z,95940.16
2024-04-23T09:16:20.717Z,95943.53
2024-04-23T09:18:51.615Z,95939.88
2024-04-23T09:21:18.950Z,95940.66
2024-04-23T09:23:48.950Z,95934.16
2024-04-23T09:26:16.341Z,95933.88
2024-04-23T09:28:49.671Z,95936.31
2024-04-23T09:31:24.378Z,95925.97
2024-04-23T09:33:55.069Z,95922.16
2024-04-23T09:36:25.239Z,95922.19
2024-04-23T09:38:53.382Z,95917.72
2024-04-23T09:41:25.777Z,95922.31
2024-04-23T09:43:56.154Z,95912.25
2024-04-23T09:46:27.268Z,95907.69
2024-04-23T09:48:54.670Z,95905.06
2024-04-23T09:51:24.684Z,95901.31
2024-04-23T09:53:54.458Z,95895.88
2024-04-23T09:56:24.471Z,95888.66
2024-04-23T09:58:52.379Z,95887.00
2024-04-23T10:01:25.710Z,95887.28
2024-04-23T10:03:55.745Z,95886.88
2024-04-23T10:06:28.158Z,95882.28
2024-04-23T10:08:58.537Z,95871.41
2024-04-23T10:11:30.347Z,95873.94
2024-04-23T10:14:02.068Z,95872.06
2024-04-23T10:16:43.531Z,95861.97
2024-04-23T10:19:11.943Z,95856.81
2024-04-23T10:21:43.504Z,95853.88
2024-04-23T10:24:11.080Z,95855.22
2024-04-23T10:26:42.334Z,95854.94
2024-04-23T10:29:10.564Z,95849.69
2024-04-23T10:31:43.489Z,95846.69
2024-04-23T10:34:10.851Z,95852.19
2024-04-23T10:36:42.301Z,95849.50
2024-04-23T10:39:12.881Z,95846.38
2024-04-23T10:41:43.226Z,95842.09
2024-04-23T10:44:12.452Z,95838.84
2024-04-23T10:46:45.850Z,95843.31
2024-04-23T10:49:17.223Z,95833.09
2024-04-23T10:51:47.887Z,95828.25
2024-04-23T10:54:15.736Z,95832.16
2024-04-23T10:56:45.893Z,95831.44
2024-04-23T10:59:18.760Z,95832.84
2024-04-23T11:01:56.824Z,95828.13
2024-04-23T11:04:28.928Z,95817.94
2024-04-23T11:07:05.305Z,95822.47
2024-04-23T11:09:35.979Z,95819.69
2024-04-23T11:12:07.503Z,95816.78
2024-04-23T11:14:35.998Z,95817.63
2024-04-23T11:17:08.988Z,95807.06
2024-04-23T11:19:38.138Z,95802.97
2024-04-23T11:22:10.817Z,95793.47
2024-04-23T11:24:45.063Z,95799.38
2024-04-23T11:27:16.426Z,95797.44
2024-04-23T11:29:44.480Z,95793.81
2024-04-23T11:32:17.468Z,95785.31
2024-04-23T11:34:45.880Z,95768.75
2024-04-23T11:37:25.937Z,95776.81
2024-04-23T11:39:57.592Z,95769.19
2024-04-23T11:42:28.128Z,95778.16
2024-04-23T11:44:57.554Z,95774.47
2024-04-23T11:47:30.572Z,95770.13
2024-04-23T11:50:01.793Z,95769.88
2024-04-23T11:52:32.218Z,95753.47
2024-04-23T11:55:00.929Z,95747.31
2024-04-23T11:57:30.925Z,95747.47
2024-04-23T11:59:58.571Z,95752.00
2024-04-23T12:02:34.339Z,95742.38
2024-04-23T12:05:02.739Z,95737.56
2024-04-23T12:07:33.926Z,95744.16
2024-04-23T12:10:05.667Z,95743.78
2024-04-23T12:12:38.139Z,95735.38
2024-04-23T12:15:06.851Z,95737.59
2024-04-23T12:17:41.334Z,95727.22
2024-04-23T12:20:10.599Z,95728.88
2024-04-23T12:22:46.533Z,95710.78
2024-04-23T12:25:15.612Z,95713.22
2024-04-23T12:27:47.708Z,95715.63
2024-04-23T12:30:20.055Z,95706.00
2024-04-23T12:32:56.050Z,95708.28
2024-04-23T12:35:23.527Z,95711.16
2024-04-23T12:38:01.278Z,95695.69
2024-04-23T12:40:28.774Z,95698.41
2024-04-23T12:43:01.595Z,95689.88
2024-04-23T12:45:29.390Z,95685.66
2024-04-23T12:48:02.835Z,95691.78
2024-04-23T12:50:30.847Z,95689.13
2024-04-23T12:53:01.213Z,95681.94
2024-04-23T12:55:30.268Z,95680.63
2024-04-23T12:58:02.131Z,95678.22
2024-04-23T13:00:29.615Z,95671.00
2024-04-23T13:03:02.417Z,95665.78
2024-04-23T13:05:29.804Z,95661.16
2024-04-23T13:07:59.876Z,95662.59
2024-04-23T13:10:27.313Z,95658.31
2024-04-23T13:12:57.614Z,95664.50
2024-04-23T13:15:25.001Z,95657.84
2024-04-23T13:17:55.349Z,95649.38
2024-04-23T13:20:25.479Z,95643.53
2024-04-23T13:22:55.514Z,95634.97
2024-04-23T13:25:23.448Z,95630.72
2024-04-23T13:27:53.857Z,95639.00
2024-04-23T13:30:21.276Z,95630.19
2024-04-23T13:32:51.457Z,95626.41
2024-04-23T13:35:19.010Z,95624.22
2024-04-23T13:37:51.691Z,95621.47
2024-04-23T13:40:19.575Z,95620.84
2024-04-23T13:42:49.611Z,95618.66
2024-04-23T13:45:16.970Z,95615.38
2024-04-23T13:47:48.572Z,95619.66
2024-04-23T13:50:16.083Z,95618.38
2024-04-23T13:52:46.562Z,95612.81
2024-04-23T13:55:16.879Z,95608.53
2024-04-23T13:57:46.887Z,95604.81
2024-04-23T14:00:14.547Z,95603.78
2024-04-23T14:02:45.126Z,95601.44
2024-04-23T14:05:15.829Z,95605.97
2024-04-23T14:07:44.737Z,95612.16
2024-04-23T14:10:15.576Z,95604.97
2024-04-23T14:12:47.433Z,95607.63
2024-04-23T14:15:22.192Z,95610.59
2024-04-23T14:17:49.725Z,95607.66
2024-04-23T14:20:21.177Z,95601.28
2024-04-23T14:22:48.539Z,95594.06
2024-04-23T14:25:18.550Z,95590.34
2024-04-23T14:27:48.640Z,95585.78
2024-04-23T14:30:19.010Z,95580.47
2024-04-23T14:32:49.086Z,95593.03
2024-04-23T14:35:16.545Z,95593.56
2024-04-23T14:37:46.598Z,95590.38
2024-04-23T14:40:14.017Z,95601.59
2024-04-23T14:42:44.204Z,95599.47
2024-04-23T14:45:14.373Z,95593.06
2024-04-23T14:47:44.883Z,95595.19
2024-04-23T14:50:14.264Z,95590.09
2024-04-23T14:52:44.372Z,95589.56
2024-04-23T14:55:11.782Z,95588.19
2024-04-23T14:57:41.802Z,95589.44
2024-04-23T15:00:11.364Z,95588.09
2024-04-23T15:02:44.240Z,95588.59
2024-04-23T15:05:11.736Z,95584.34
2024-04-23T15:07:42.014Z,95582.41
2024-04-23T15:10:11.122Z,95590.41
2024-04-23T15:12:41.617Z,95593.00
2024-04-23T15:15:10.911Z,95586.09
2024-04-23T15:17:43.797Z,95594.63
2024-04-23T15:20:11.654Z,95595.88
2024-04-23T15:22:41.722Z,95580.84
2024-04-23T15:25:09.099Z,95584.56
2024-04-23T15:27:39.203Z,95588.50
2024-04-23T15:30:08.125Z,95581.84
2024-04-23T15:32:38.261Z,95581.59
2024-04-23T15:35:08.595Z,95585.91
2024-04-23T15:37:38.738Z,95586.16
2024-04-23T15:40:07.314Z,95591.47
2024-04-23T15:42:39.953Z,95592.47
2024-04-23T15:45:08.458Z,95589.56
2024-04-23T15:47:38.557Z,95585.28
2024-04-23T15:50:09.003Z,95587.03
2024-04-23T15:52:39.135Z,95583.84
2024-04-23T15:55:07.453Z,95581.38
2024-04-23T15:57:37.451Z,95580.31
2024-04-23T16:00:08.452Z,95581.13
2024-04-23T16:02:36.003Z,95583.50
2024-04-23T16:05:06.199Z,95576.56
2024-04-23T16:07:36.613Z,95578.72
2024-04-23T16:10:07.093Z,95577.66
2024-04-23T16:12:35.717Z,95573.38
2024-04-23T16:15:05.700Z,95574.91
2024-04-23T16:17:35.162Z,95578.06
2024-04-23T16:20:06.194Z,95577.75
2024-04-23T16:22:37.465Z,95573.69
2024-04-23T16:25:08.208Z,95565.69
2024-04-23T16:27:35.620Z,95568.59
2024-04-23T16:30:05.613Z,95567.00
2024-04-23T16:32:33.131Z,95562.69
2024-04-23T16:35:03.364Z,95570.38
2024-04-23T16:37:33.577Z,95565.03
2024-04-23T16:40:06.234Z,95563.91
2024-04-23T16:42:33.588Z,95565.81
2024-04-23T16:45:04.145Z,95568.72
2024-04-23T16:47:32.596Z,95569.47
2024-04-23T16:50:03.078Z,95561.75
2024-04-23T16:52:30.484Z,95562.75
2024-04-23T16:55:00.471Z,95556.53
2024-04-23T16:57:30.491Z,95550.38
2024-04-23T17:00:00.515Z,95556.75
2024-04-23T17:02:28.198Z,95553.28
2024-04-23T17:04:59.753Z,95558.78
2024-04-23T17:07:30.354Z,95555.59
2024-04-23T17:10:00.469Z,95558.19
2024-04-23T17:12:30.554Z,95557.69
2024-04-23T17:15:01.003Z,95559.75
2024-04-23T17:17:29.427Z,95556.78
2024-04-23T17:19:59.633Z,95557.34
2024-04-23T17:22:27.072Z,95549.06
2024-04-23T17:24:57.091Z,95556.47
2024-04-23T17:27:24.451Z,95553.00
2024-04-23T17:29:57.113Z,95555.66
2024-04-23T17:32:24.618Z,95554.56
2024-04-23T17:34:54.709Z,95543.88
2024-04-23T17:37:22.064Z,95556.06
2024-04-23T17:39:52.092Z,95561.94
2024-04-23T17:42:19.575Z,95550.75
2024-04-23T17:44:49.899Z,95549.38
2024-04-23T17:47:20.010Z,95540.00
2024-04-23T17:49:50.156Z,95541.06
2024-04-23T17:52:17.555Z,95543.09
2024-04-23T17:54:47.559Z,95548.66
2024-04-23T17:57:15.522Z,95544.63
2024-04-23T17:59:45.589Z,95547.50
2024-04-23T18:02:12.946Z,95536.88
2024-04-23T18:04:47.008Z,95537.66
2024-04-23T18:07:14.444Z,95534.22
2024-04-23T18:09:44.999Z,95531.78
2024-04-23T18:12:12.779Z,95533.28
2024-04-23T18:14:42.764Z,95526.91
2024-04-23T18:17:10.200Z,95532.38
2024-04-23T18:19:42.177Z,95533.44
2024-04-23T18:22:12.273Z,95533.34
2024-04-23T18:24:42.318Z,95529.09
2024-04-23T18:27:09.665Z,95532.25
2024-04-23T18:29:39.659Z,95526.38
2024-04-23T18:32:07.388Z,95532.66
2024-04-23T18:34:37.391Z,95524.16
2024-04-23T18:37:05.020Z,95519.56
2024-04-23T18:39:38.117Z,95525.38
2024-04-23T18:42:06.136Z,95520.47
2024-04-23T18:44:36.463Z,95512.22
2024-04-23T18:47:03.949Z,95513.50
2024-04-23T18:49:33.972Z,95509.81
2024-04-23T18:52:01.703Z,95510.63
2024-04-23T18:54:32.990Z,95520.09
2024-04-23T18:57:03.067Z,95514.75
2024-04-23T18:59:33.116Z,95514.16
2024-04-23T19:02:02.106Z,95516.25
2024-04-23T19:04:32.161Z,95504.53
2024-04-23T19:06:59.978Z,95500.75
2024-04-23T19:09:30.031Z,95505.19
2024-04-23T19:11:57.414Z,95502.47
2024-04-23T19:14:30.150Z,95492.84
2024-04-23T19:16:57.589Z,95492.75
2024-04-23T19:19:28.101Z,95502.47
2024-04-23T19:21:56.458Z,95497.88
2024-04-23T19:24:26.435Z,95496.22
2024-04-23T19:26:54.677Z,95496.91
2024-04-23T19:29:24.801Z,95497.09
2024-04-23T19:31:55.050Z,95496.75
2024-04-23T19:34:25.473Z,95479.97
2024-04-23T19:36:57.381Z,95483.09
2024-04-23T19:39:24.741Z,95479.34
2024-04-23T19:41:54.717Z,95483.50
2024-04-23T19:44:22.090Z,95476.81
2024-04-23T19:46:52.420Z,95472.25
2024-04-23T19:49:22.497Z,95476.41
2024-04-23T19:51:52.494Z,95475.31
2024-04-23T19:54:19.856Z,95474.16
2024-04-23T19:57:05.911Z,95460.84
2024-04-23T19:59:36.021Z,95466.03
2024-04-23T20:02:06.624Z,95465.97
2024-04-23T20:04:39.353Z,95465.28
2024-04-23T20:07:09.352Z,95459.56
2024-04-23T20:09:43.296Z,95463.16
2024-04-23T20:12:10.995Z,95456.19
2024-04-23T20:14:41.053Z,95456.31
2024-04-23T20:17:11.158Z,95452.19
2024-04-23T20:19:43.927Z,95453.38
2024-04-23T20:22:13.925Z,95449.25
2024-04-23T20:24:43.930Z,95451.47
2024-04-23T20:27:13.935Z,95454.47
2024-04-23T20:29:44.313Z,95449.53
2024-04-23T20:32:11.682Z,95446.22
2024-04-23T20:34:44.439Z,95453.56
2024-04-23T20:37:11.796Z,95447.03
2024-04-23T20:39:41.785Z,95443.38
2024-04-23T20:42:11.754Z,95450.13
2024-04-23T20:44:42.115Z,95447.03
2024-04-23T20:47:12.265Z,95452.47
2024-04-23T20:49:45.034Z,95443.50
2024-04-23T20:52:15.052Z,95445.34
2024-04-23T20:54:45.110Z,95442.50
2024-04-23T20:57:16.614Z,95435.91
2024-04-23T20:59:46.628Z,95441.19
2024-04-23T21:02:16.730Z,95438.31
2024-04-23T21:04:49.596Z,95436.00
2024-04-23T21:07:19.787Z,95442.75
2024-04-23T21:09:49.886Z,95437.81
2024-04-23T21:12:20.329Z,95432.84
2024-04-23T21:14:50.349Z,95432.94
2024-04-23T21:17:20.448Z,95432.81
2024-04-23T21:19:53.090Z,95439.78
2024-04-23T21:22:23.132Z,95434.59
2024-04-23T21:24:53.632Z,95433.69
2024-04-23T21:27:23.659Z,95432.38
2024-04-23T21:29:53.662Z,95431.91
2024-04-23T21:32:24.521Z,95426.09
2024-04-23T21:34:57.243Z,95420.91
2024-04-23T21:37:27.304Z,95421.00
2024-04-23T21:39:55.066Z,95424.50
2024-04-23T21:42:31.787Z,95422.78
2024-04-23T21:45:10.349Z,95412.31
2024-04-23T21:47:40.752Z,95412.97
2024-04-23T21:50:13.620Z,95410.41
2024-04-23T21:52:43.681Z,95398.13
2024-04-23T21:55:13.753Z,95392.72
2024-04-23T21:57:43.796Z,95398.41
2024-04-23T22:00:13.300Z,95390.81
2024-04-23T22:02:43.471Z,95392.28
2024-04-23T22:05:16.700Z,95381.59
2024-04-23T22:07:48.103Z,95384.44
2024-04-23T22:10:20.293Z,95393.50
2024-04-23T22:12:51.448Z,95388.47
2024-04-23T22:15:28.383Z,95383.88
2024-04-23T22:18:06.409Z,95386.34
2024-04-23T22:20:39.359Z,95383.13
2024-04-23T22:23:09.397Z,95385.75
2024-04-23T22:25:39.433Z,95379.31
2024-04-23T22:28:09.660Z,95387.06
2024-04-23T22:30:39.722Z,95381.44
2024-04-23T22:33:10.358Z,95385.50
2024-04-23T22:35:43.150Z,95392.59
2024-04-23T22:38:13.296Z,95383.31
2024-04-23T22:40:43.380Z,95371.75
2024-04-23T22:43:10.834Z,95373.38
2024-04-23T22:45:40.919Z,95367.53
2024-04-23T22:48:11.590Z,95362.72
2024-04-23T22:50:44.412Z,95358.09
2024-04-23T22:53:14.720Z,95357.44
2024-04-23T22:55:44.836Z,95357.66
2024-04-23T22:58:14.906Z,95352.22
2024-04-23T23:00:45.010Z,95346.16
2024-04-23T23:03:15.149Z,95354.84
2024-04-23T23:05:47.879Z,95357.72
2024-04-23T23:08:18.024Z,95354.84
2024-04-23T23:10:48.243Z,95361.13
2024-04-23T23:13:18.297Z,95354.84
2024-04-23T23:15:49.797Z,95354.22
2024-04-23T23:18:19.804Z,95348.53
2024-04-23T23:20:52.498Z,95346.72
2024-04-23T23:23:22.577Z,95348.28
2024-04-23T23:25:52.650Z,95351.50
2024-04-23T23:28:23.016Z,95345.63
2024-04-23T23:30:53.029Z,95340.50
2024-04-23T23:33:23.117Z,95343.28
2024-04-23T23:35:53.201Z,95329.53
2024-04-23T23:38:23.238Z,95323.47
2024-04-23T23:40:53.295Z,95320.03
2024-04-23T23:43:23.766Z,95314.56
2024-04-23T23:45:54.115Z,95307.25
2024-04-23T23:48:24.639Z,95305.16
2024-04-23T23:50:57.387Z,95303.00
2024-04-23T23:53:27.464Z,95290.06
2024-04-23T23:55:57.833Z,95291.88
2024-04-23T23:58:28.132Z,95283.78
